Time;durP1;ratioP1;P1;durP2;ratioP2;P2;SDS_P1;SDS_P2;PMS_P1;PMS_P2;Temp;Humidity;BMP_temperature;BMP_pressure;BME280_temperature;BME280_humidity;BME280_pressure;Samples;Min_cycle;Max_cycle;Signal;HPM_P1;HPM_P2
2021/10/29 00:01:13;;;;;;;4.03;1.85;;;8.20;99.90;;;;;;5053142;28;20245;-65
2021/10/29 00:03:41;;;;;;;2.10;1.10;;;8.10;99.90;;;;;;5071524;28;20226;-65
2021/10/29 00:06:10;;;;;;;2.30;1.50;;;8.20;99.90;;;;;;5074942;28;20180;-65
2021/10/29 00:08:38;;;;;;;6.13;2.45;;;8.10;99.90;;;;;;5075153;28;20410;-65
2021/10/29 00:11:06;;;;;;;1.73;1.00;;;8.10;99.90;;;;;;5075794;28;20188;-64
2021/10/29 00:13:36;;;;;;;1.20;0.70;;;8.20;99.90;;;;;;5075319;28;20204;-64
2021/10/29 00:16:04;;;;;;;2.38;1.08;;;8.10;99.90;;;;;;5075215;28;20203;-66
2021/10/29 00:18:33;;;;;;;2.60;1.85;;;8.10;99.90;;;;;;5074979;28;20187;-65
2021/10/29 00:21:01;;;;;;;17.70;1.60;;;8.00;99.90;;;;;;5074777;28;20192;-65
2021/10/29 00:23:31;;;;;;;1.73;1.63;;;8.00;99.90;;;;;;5074864;28;20220;-65
2021/10/29 00:25:59;;;;;;;2.05;1.48;;;8.00;99.90;;;;;;5074840;28;20184;-65
2021/10/29 00:28:28;;;;;;;1.85;1.27;;;8.10;99.90;;;;;;5074725;28;20672;-65
2021/10/29 00:30:57;;;;;;;2.25;0.80;;;8.10;99.90;;;;;;5075125;28;20589;-66
2021/10/29 00:33:26;;;;;;;1.98;1.73;;;8.00;99.90;;;;;;5074718;28;20704;-66
2021/10/29 00:35:54;;;;;;;3.95;2.80;;;8.00;99.90;;;;;;5074959;28;20706;-65
2021/10/29 00:38:25;;;;;;;3.15;2.85;;;7.90;99.90;;;;;;5074609;28;20303;-66
2021/10/29 00:40:53;;;;;;;4.55;2.58;;;7.90;99.90;;;;;;5074333;28;20188;-65
2021/10/29 00:43:21;;;;;;;1.42;1.33;;;7.90;99.90;;;;;;5074221;28;20207;-67
2021/10/29 00:45:50;;;;;;;3.13;1.83;;;7.80;99.90;;;;;;5074733;28;20181;-65
2021/10/29 00:48:19;;;;;;;4.82;2.60;;;7.80;99.90;;;;;;5074260;28;20211;-65
2021/10/29 00:50:48;;;;;;;3.85;3.53;;;7.80;99.90;;;;;;5074440;28;20188;-64
2021/10/29 00:53:16;;;;;;;1.15;0.95;;;7.80;99.90;;;;;;5074637;28;20212;-64
2021/10/29 00:55:45;;;;;;;1.58;1.27;;;7.70;99.90;;;;;;5074439;28;20172;-64
2021/10/29 00:58:13;;;;;;;3.72;1.48;;;7.70;99.90;;;;;;5074571;28;20184;-66
2021/10/29 01:00:41;;;;;;;1.52;1.35;;;7.60;99.90;;;;;;5074643;28;20195;-66
2021/10/29 01:03:09;;;;;;;1.60;1.40;;;7.70;99.90;;;;;;5074451;28;20219;-65
2021/10/29 01:05:39;;;;;;;2.25;2.03;;;7.70;99.90;;;;;;5073769;28;20192;-64
2021/10/29 01:08:09;;;;;;;4.20;2.78;;;7.70;99.90;;;;;;5073984;28;20720;-65
2021/10/29 01:10:38;;;;;;;2.28;1.10;;;7.50;99.90;;;;;;5074179;28;20299;-64
2021/10/29 01:13:07;;;;;;;3.65;1.85;;;7.40;99.90;;;;;;5073840;28;20273;-64
2021/10/29 01:15:36;;;;;;;3.25;2.30;;;7.40;99.90;;;;;;5073187;28;20188;-65
2021/10/29 01:18:04;;;;;;;1.90;1.40;;;7.40;99.90;;;;;;5074539;28;20204;-64
2021/10/29 01:20:34;;;;;;;5.88;1.48;;;7.30;99.90;;;;;;5073899;28;20180;-65
2021/10/29 01:23:02;;;;;;;4.50;2.10;;;7.30;99.90;;;;;;5073589;28;20204;-65
2021/10/29 01:25:30;;;;;;;6.35;2.40;;;7.30;99.90;;;;;;5073427;28;20172;-65
2021/10/29 01:27:59;;;;;;;4.13;2.08;;;7.30;99.90;;;;;;5073780;28;20629;-65
2021/10/29 01:30:27;;;;;;;6.97;2.58;;;7.20;99.90;;;;;;5073401;28;20665;-65
2021/10/29 01:32:56;;;;;;;1.73;1.63;;;7.20;99.90;;;;;;5073273;28;20307;-65
2021/10/29 01:35:25;;;;;;;2.75;2.55;;;7.10;99.90;;;;;;5073442;28;20172;-65
2021/10/29 01:37:54;;;;;;;3.00;2.13;;;7.20;99.90;;;;;;5073386;28;20184;-65
2021/10/29 01:40:23;;;;;;;1.17;0.70;;;7.10;99.90;;;;;;5073257;28;20274;-65
2021/10/29 01:42:51;;;;;;;5.57;2.53;;;7.10;99.90;;;;;;5073234;28;20212;-64
2021/10/29 01:45:19;;;;;;;3.38;0.90;;;7.00;99.90;;;;;;5073444;28;20586;-65
2021/10/29 01:47:47;;;;;;;1.83;1.40;;;7.00;99.90;;;;;;5073072;28;20660;-65
2021/10/29 01:50:15;;;;;;;1.75;1.63;;;6.90;99.90;;;;;;5073048;28;20226;-65
2021/10/29 01:52:43;;;;;;;1.85;1.48;;;6.90;99.90;;;;;;5072767;28;20672;-65
2021/10/29 01:55:13;;;;;;;3.42;3.22;;;6.90;99.90;;;;;;5072756;28;20242;-64
2021/10/29 01:57:41;;;;;;;0.90;0.70;;;6.90;99.90;;;;;;5072855;28;20173;-65
2021/10/29 02:00:10;;;;;;;1.77;1.48;;;6.80;99.90;;;;;;5055039;28;20192;-65
2021/10/29 02:02:40;;;;;;;1.45;1.15;;;6.70;99.90;;;;;;5073263;28;20203;-65
2021/10/29 02:05:09;;;;;;;0.80;0.60;;;6.70;99.90;;;;;;5072787;28;20214;-65
2021/10/29 02:07:37;;;;;;;2.67;2.47;;;6.70;99.90;;;;;;5072906;28;20685;-64
2021/10/29 02:10:06;;;;;;;2.95;1.90;;;6.70;99.90;;;;;;5072827;28;20181;-66
2021/10/29 02:12:36;;;;;;;2.95;1.10;;;6.70;99.90;;;;;;5072620;28;20249;-65
2021/10/29 02:15:06;;;;;;;3.22;1.30;;;6.70;99.90;;;;;;5072832;28;20184;-65
2021/10/29 02:17:34;;;;;;;2.60;2.25;;;6.60;99.90;;;;;;5072631;28;20230;-66
2021/10/29 02:20:03;;;;;;;3.47;1.55;;;6.70;99.90;;;;;;5072830;28;20234;-66
2021/10/29 02:22:32;;;;;;;6.35;2.45;;;6.70;99.90;;;;;;5072880;28;20287;-65
2021/10/29 02:25:00;;;;;;;1.73;1.60;;;6.60;99.90;;;;;;5073042;28;20249;-65
2021/10/29 02:27:28;;;;;;;1.88;1.70;;;6.60;99.90;;;;;;5072102;28;20168;-65
2021/10/29 02:29:58;;;;;;;1.73;1.63;;;6.50;99.90;;;;;;5072661;28;20183;-65
2021/10/29 02:32:26;;;;;;;6.65;1.80;;;6.60;99.90;;;;;;5073003;28;20235;-66
2021/10/29 02:34:54;;;;;;;1.52;1.05;;;6.60;99.90;;;;;;5072506;28;20181;-65
2021/10/29 02:37:22;;;;;;;3.05;2.00;;;6.50;99.90;;;;;;5072674;28;20602;-65
2021/10/29 02:39:51;;;;;;;1.40;1.00;;;6.50;99.90;;;;;;5072479;28;20656;-65
2021/10/29 02:42:19;;;;;;;1.15;0.60;;;6.50;99.90;;;;;;5072424;28;20296;-65
2021/10/29 02:44:47;;;;;;;2.92;1.45;;;6.50;99.90;;;;;;5072697;28;20199;-66
2021/10/29 02:47:17;;;;;;;1.80;1.25;;;6.40;99.90;;;;;;5072670;28;20561;-64
2021/10/29 02:49:45;;;;;;;2.10;1.90;;;6.40;99.90;;;;;;5072522;28;20184;-65
2021/10/29 02:52:13;;;;;;;3.22;3.03;;;6.30;99.90;;;;;;5073001;28;20265;-66
2021/10/29 02:54:42;;;;;;;4.70;1.85;;;6.30;99.90;;;;;;5072735;28;20416;-65
2021/10/29 02:57:10;;;;;;;4.03;2.08;;;6.30;99.90;;;;;;5073277;28;20580;-65
2021/10/29 02:59:38;;;;;;;1.65;1.55;;;6.30;99.90;;;;;;5072342;28;20192;-64
2021/10/29 03:02:06;;;;;;;6.45;3.60;;;6.30;99.90;;;;;;5072035;28;20204;-64
2021/10/29 03:04:36;;;;;;;1.25;1.10;;;6.30;99.90;;;;;;5072191;28;20275;-65
2021/10/29 03:07:04;;;;;;;1.30;1.20;;;6.30;99.90;;;;;;5072172;28;20184;-66
2021/10/29 03:09:32;;;;;;;1.80;1.00;;;6.20;99.90;;;;;;5072071;28;20515;-66
2021/10/29 03:12:01;;;;;;;4.70;2.60;;;6.30;99.90;;;;;;5072212;28;20208;-65
2021/10/29 03:14:29;;;;;;;1.88;1.55;;;6.30;99.90;;;;;;5071937;28;20192;-64
2021/10/29 03:16:57;;;;;;;2.65;2.45;;;6.30;99.90;;;;;;5071934;28;20538;-65
2021/10/29 03:19:25;;;;;;;1.95;1.00;;;6.20;99.90;;;;;;5071781;28;20207;-65
2021/10/29 03:21:55;;;;;;;5.05;1.42;;;6.10;99.90;;;;;;5071709;28;20577;-65
2021/10/29 03:24:23;;;;;;;1.23;1.13;;;6.10;99.90;;;;;;5071946;28;20218;-65
2021/10/29 03:26:56;;;;;;;2.25;2.05;;;6.10;99.90;;;;;;5071930;28;20637;-65
2021/10/29 03:29:24;;;;;;;2.75;1.33;;;6.00;99.90;;;;;;5071780;28;20176;-65
2021/10/29 03:31:52;;;;;;;2.53;2.33;;;6.00;99.90;;;;;;5053665;28;20215;-65
2021/10/29 03:34:20;;;;;;;1.85;1.75;;;6.10;99.90;;;;;;5071435;28;20303;-66
2021/10/29 03:36:48;;;;;;;2.65;1.40;;;6.10;99.90;;;;;;5072089;28;20591;-66
2021/10/29 03:39:22;;;;;;;1.65;1.55;;;6.00;99.90;;;;;;5073471;28;20427;-66
2021/10/29 03:41:55;;;;;;;3.42;3.13;;;6.00;99.90;;;;;;5075827;28;20687;-66
2021/10/29 03:44:35;;;;;;;2.13;1.88;;;6.00;99.90;;;;;;5075923;28;20603;-65
2021/10/29 03:47:03;;;;;;;3.40;2.47;;;5.90;99.90;;;;;;5075398;28;20259;-65
2021/10/29 03:49:35;;;;;;;1.77;1.65;;;5.90;99.90;;;;;;5057543;28;20188;-65
2021/10/29 03:52:09;;;;;;;4.43;1.92;;;6.00;99.90;;;;;;5075531;28;20208;-65
2021/10/29 03:54:39;;;;;;;2.17;2.08;;;5.90;99.90;;;;;;5075463;28;20533;-65
2021/10/29 03:57:23;;;;;;;3.05;2.30;;;6.00;99.90;;;;;;5075546;28;20176;-65
2021/10/29 03:59:51;;;;;;;2.97;2.15;;;6.00;99.90;;;;;;5075327;28;20211;-65
2021/10/29 04:02:20;;;;;;;1.50;1.38;;;6.00;99.90;;;;;;5075607;28;20228;-65
2021/10/29 04:04:48;;;;;;;3.05;2.22;;;5.90;99.90;;;;;;5086437;23;20216;-64
2021/10/29 04:07:17;;;;;;;3.33;1.83;;;5.90;99.90;;;;;;5060253;28;20185;-66
2021/10/29 04:09:46;;;;;;;1.23;1.13;;;5.90;99.90;;;;;;5054361;28;20250;-66
2021/10/29 04:12:16;;;;;;;4.20;1.95;;;5.80;99.90;;;;;;5047959;28;20228;-65
2021/10/29 04:14:45;;;;;;;1.13;0.80;;;5.80;99.90;;;;;;5034326;28;20227;-66
2021/10/29 04:17:13;;;;;;;3.00;1.80;;;5.80;99.90;;;;;;5034246;28;20220;-66
2021/10/29 04:19:41;;;;;;;1.20;1.10;;;5.80;99.90;;;;;;5034342;28;20247;-66
2021/10/29 04:22:09;;;;;;;0.80;0.60;;;5.80;99.90;;;;;;5034220;28;20217;-66
2021/10/29 04:24:37;;;;;;;1.98;1.88;;;5.70;99.90;;;;;;5034588;28;20182;-65
2021/10/29 04:27:07;;;;;;;2.95;2.65;;;5.80;99.90;;;;;;5034124;28;20300;-65
2021/10/29 04:29:38;;;;;;;1.50;1.20;;;5.80;99.90;;;;;;5034105;28;20198;-64
2021/10/29 04:32:07;;;;;;;0.90;0.70;;;5.80;99.90;;;;;;5033959;28;20217;-65
2021/10/29 04:34:35;;;;;;;1.77;1.58;;;5.80;99.90;;;;;;5034118;28;20189;-63
2021/10/29 04:37:04;;;;;;;5.10;2.63;;;5.70;99.90;;;;;;5034061;28;20189;-65
2021/10/29 04:39:32;;;;;;;2.28;2.05;;;5.70;99.90;;;;;;5035217;28;20197;-66
2021/10/29 04:42:01;;;;;;;3.15;1.25;;;5.70;99.90;;;;;;5035196;28;20206;-65
2021/10/29 04:44:30;;;;;;;2.97;2.78;;;5.70;99.90;;;;;;5017276;28;20186;-64
2021/10/29 04:46:58;;;;;;;2.40;2.22;;;5.70;99.90;;;;;;5034250;28;20197;-66
2021/10/29 04:49:26;;;;;;;2.10;1.90;;;5.60;99.90;;;;;;5036799;28;20200;-66
2021/10/29 04:51:55;;;;;;;4.57;1.80;;;5.60;99.90;;;;;;5038449;28;20212;-66
2021/10/29 04:54:23;;;;;;;2.75;1.77;;;5.60;99.90;;;;;;5038696;28;20220;-66
2021/10/29 04:56:55;;;;;;;2.65;1.42;;;5.60;99.90;;;;;;5036338;28;20273;-65
2021/10/29 04:59:23;;;;;;;4.10;2.38;;;5.60;99.90;;;;;;5036739;28;20190;-66
2021/10/29 05:01:53;;;;;;;2.97;1.50;;;5.70;99.90;;;;;;5038438;28;20284;-65
2021/10/29 05:04:23;;;;;;;1.20;1.10;;;5.70;99.90;;;;;;5034551;28;20712;-66
2021/10/29 05:06:51;;;;;;;1.48;1.02;;;5.60;99.90;;;;;;5033533;28;20177;-65
2021/10/29 05:09:19;;;;;;;2.35;1.25;;;5.60;99.90;;;;;;5033677;28;20174;-66
2021/10/29 05:11:47;;;;;;;2.90;0.75;;;5.60;99.90;;;;;;5033114;28;20178;-66
2021/10/29 05:14:15;;;;;;;1.88;1.05;;;5.60;99.90;;;;;;5033252;28;20577;-66
2021/10/29 05:16:43;;;;;;;2.05;1.95;;;5.60;99.90;;;;;;5033147;28;20194;-65
2021/10/29 05:19:13;;;;;;;2.70;0.60;;;5.50;99.90;;;;;;5033292;28;20228;-66
2021/10/29 05:21:41;;;;;;;1.67;1.00;;;5.50;99.90;;;;;;5033264;28;20174;-66
2021/10/29 05:24:09;;;;;;;0.90;0.65;;;5.50;99.90;;;;;;5033061;28;20200;-66
2021/10/29 05:26:38;;;;;;;1.70;1.40;;;5.50;99.90;;;;;;5033121;28;20197;-66
2021/10/29 05:29:06;;;;;;;3.60;2.88;;;5.50;99.90;;;;;;5033344;28;20210;-66
2021/10/29 05:31:34;;;;;;;1.10;0.77;;;5.60;99.90;;;;;;5033087;28;20178;-66
2021/10/29 05:34:03;;;;;;;1.23;1.13;;;5.60;99.90;;;;;;5032847;28;20194;-65
2021/10/29 05:36:33;;;;;;;1.95;1.45;;;5.50;99.90;;;;;;5033101;28;20634;-65
2021/10/29 05:39:01;;;;;;;1.20;1.10;;;5.50;99.90;;;;;;5032919;28;20184;-65
2021/10/29 05:41:29;;;;;;;4.70;2.15;;;5.50;99.90;;;;;;5032838;28;20190;-64
2021/10/29 05:43:57;;;;;;;1.42;0.98;;;5.50;99.90;;;;;;5032744;28;20201;-65
2021/10/29 05:46:30;;;;;;;1.90;1.70;;;5.50;99.90;;;;;;5032708;28;20551;-65
2021/10/29 05:48:59;;;;;;;1.92;1.73;;;5.50;99.90;;;;;;5032522;28;20248;-66
2021/10/29 05:51:28;;;;;;;4.82;2.03;;;5.40;99.90;;;;;;5032647;28;20189;-65
2021/10/29 05:54:12;;;;;;;2.47;1.20;;;5.50;99.90;;;;;;5032472;28;20196;-66
2021/10/29 05:56:40;;;;;;;1.63;1.23;;;5.40;99.90;;;;;;5014684;28;20193;-66
2021/10/29 05:59:08;;;;;;;1.30;1.20;;;5.40;99.90;;;;;;5032511;28;20184;-66
2021/10/29 06:01:36;;;;;;;2.55;2.10;;;5.40;99.90;;;;;;5032256;28;20201;-66
2021/10/29 06:04:05;;;;;;;1.00;0.80;;;5.40;99.90;;;;;;5032243;28;20203;-64
2021/10/29 06:06:33;;;;;;;4.60;1.60;;;5.40;99.90;;;;;;5032402;28;20185;-64
2021/10/29 06:09:03;;;;;;;3.50;1.75;;;5.40;99.90;;;;;;5032395;28;20204;-65
2021/10/29 06:11:31;;;;;;;3.40;1.23;;;5.40;99.90;;;;;;5032569;28;20170;-65
2021/10/29 06:13:59;;;;;;;0.93;0.80;;;5.40;99.90;;;;;;5032313;28;20194;-64
2021/10/29 06:16:27;;;;;;;2.35;1.48;;;5.40;99.90;;;;;;5032355;28;20209;-66
2021/10/29 06:18:57;;;;;;;1.83;1.30;;;5.40;99.90;;;;;;5032770;28;20200;-65
2021/10/29 06:21:34;;;;;;;2.35;1.63;;;5.50;99.90;;;;;;5033044;28;20751;-65
2021/10/29 06:24:07;;;;;;;1.00;0.90;;;5.50;99.90;;;;;;5033210;28;20555;-64
2021/10/29 06:26:46;;;;;;;3.67;1.00;;;5.50;99.90;;;;;;5033073;28;20630;-64
2021/10/29 06:29:14;;;;;;;8.57;1.40;;;5.50;99.90;;;;;;5033491;28;20235;-65
2021/10/29 06:31:43;;;;;;;1.13;1.02;;;5.50;99.90;;;;;;5033017;28;20193;-65
2021/10/29 06:34:13;;;;;;;1.40;1.05;;;5.60;99.90;;;;;;5032946;28;20553;-63
2021/10/29 06:36:42;;;;;;;2.13;2.03;;;5.70;99.90;;;;;;5032962;28;20721;-62
2021/10/29 06:39:11;;;;;;;1.63;1.17;;;5.80;99.90;;;;;;5032979;28;20190;-62
2021/10/29 06:41:39;;;;;;;3.30;1.42;;;5.80;99.90;;;;;;5044089;28;20201;-62
2021/10/29 06:44:19;;;;;;;1.45;1.10;;;5.90;99.90;;;;;;5030503;28;20192;-59
2021/10/29 06:47:00;;;;;;;1.20;1.10;;;5.80;99.90;;;;;;5042012;28;20189;-60
2021/10/29 07:00:42;;;;;;;1.90;1.00;;;6.00;99.90;;;;;;5011114;28;20202;-65
2021/10/29 07:12:00;;;;;;;1.23;1.13;;;6.10;99.90;;;;;;5027736;28;20284;-65
2021/10/29 07:42:23;;;;;;;2.90;1.27;;;7.10;99.90;;;;;;5003231;28;20232;-65
2021/10/29 07:44:53;;;;;;;1.70;1.30;;;7.30;99.90;;;;;;5031743;28;20190;-65
2021/10/29 07:47:21;;;;;;;2.40;1.90;;;7.40;99.90;;;;;;5031978;28;20211;-65
2021/10/29 07:49:49;;;;;;;4.88;2.03;;;7.40;99.90;;;;;;5038438;28;20185;-65
2021/10/29 07:52:17;;;;;;;1.10;0.88;;;7.40;99.90;;;;;;5051899;28;20220;-65
2021/10/29 07:54:46;;;;;;;3.45;1.48;;;7.50;99.90;;;;;;5046722;28;20239;-65
2021/10/29 07:57:17;;;;;;;2.22;1.67;;;7.50;99.90;;;;;;5030978;28;20604;-65
2021/10/29 07:59:47;;;;;;;2.78;1.70;;;7.50;99.90;;;;;;5031084;28;20194;-65
2021/10/29 08:02:17;;;;;;;1.92;0.73;;;7.60;99.90;;;;;;5041094;28;20642;-66
2021/10/29 08:04:46;;;;;;;3.33;2.70;;;7.70;99.90;;;;;;5049376;28;20615;-66
2021/10/29 08:07:15;;;;;;;5.15;1.45;;;7.80;99.90;;;;;;5049397;28;20575;-66
2021/10/29 08:09:44;;;;;;;2.20;1.20;;;7.90;99.90;;;;;;5031018;28;20198;-65
2021/10/29 08:12:15;;;;;;;1.00;0.75;;;8.00;99.90;;;;;;5030690;28;20755;-67
2021/10/29 08:14:44;;;;;;;3.30;1.33;;;8.00;99.90;;;;;;5011182;28;20552;-66
2021/10/29 08:17:12;;;;;;;2.30;1.30;;;8.00;99.90;;;;;;5030896;28;20241;-66
2021/10/29 08:19:42;;;;;;;2.08;1.70;;;8.10;99.90;;;;;;5013369;28;20616;-67
2021/10/29 08:22:10;;;;;;;1.15;0.70;;;8.20;99.90;;;;;;5030546;28;20322;-66
2021/10/29 08:24:38;;;;;;;2.30;1.50;;;8.30;99.90;;;;;;5042436;28;20189;-66
2021/10/29 08:27:07;;;;;;;0.90;0.60;;;8.40;99.90;;;;;;5053038;28;20430;-67
2021/10/29 08:29:36;;;;;;;3.33;1.90;;;8.40;99.90;;;;;;5053552;28;20193;-66
2021/10/29 08:32:06;;;;;;;3.47;2.42;;;8.50;99.90;;;;;;5054424;28;20208;-67
2021/10/29 08:34:34;;;;;;;2.58;2.47;;;8.60;99.90;;;;;;5054341;28;20234;-66
2021/10/29 08:37:07;;;;;;;1.10;1.00;;;8.70;99.90;;;;;;5054246;28;20746;-68
2021/10/29 08:39:38;;;;;;;3.67;1.58;;;8.70;99.90;;;;;;5054485;28;20276;-66
2021/10/29 08:42:08;;;;;;;1.90;1.10;;;8.80;99.90;;;;;;5036169;28;20220;-66
2021/10/29 08:44:36;;;;;;;4.50;3.25;;;9.00;99.90;;;;;;5054363;28;20250;-65
2021/10/29 08:47:05;;;;;;;2.17;1.55;;;9.10;99.90;;;;;;5052749;28;20193;-66
2021/10/29 08:49:35;;;;;;;2.45;1.58;;;9.30;99.90;;;;;;5054499;28;20218;-67
2021/10/29 08:52:10;;;;;;;1.02;0.93;;;9.40;99.90;;;;;;5054073;28;20208;-66
2021/10/29 08:54:38;;;;;;;1.53;1.43;;;9.40;99.90;;;;;;5050690;28;20635;-66
2021/10/29 08:57:07;;;;;;;2.40;2.20;;;9.50;99.90;;;;;;5033842;28;20444;-65
2021/10/29 08:59:40;;;;;;;3.33;2.10;;;9.70;99.90;;;;;;5033768;28;20409;-67
2021/10/29 09:02:13;;;;;;;2.90;1.87;;;9.70;99.90;;;;;;5033570;28;20448;-66
2021/10/29 09:04:47;;;;;;;4.03;1.33;;;9.90;99.90;;;;;;5033111;28;20436;-67
2021/10/29 09:07:25;;;;;;;1.90;1.17;;;10.00;99.90;;;;;;5032393;28;20461;-68
2021/10/29 09:10:16;;;;;;;2.60;1.30;;;10.00;99.90;;;;;;5032596;28;20419;-65
2021/10/29 09:32:32;;;;;;;2.47;2.30;;;10.50;99.90;;;;;;5048605;28;20443;-66
2021/10/29 09:35:05;;;;;;;2.60;2.40;;;10.50;99.90;;;;;;5047722;28;20493;-66
2021/10/29 09:37:38;;;;;;;3.13;2.93;;;10.60;99.90;;;;;;5048338;28;20466;-66
2021/10/29 09:40:32;;;;;;;1.67;1.53;;;10.70;99.90;;;;;;5049754;28;20979;-66
2021/10/29 09:43:04;;;;;;;4.90;1.27;;;10.80;99.90;;;;;;5051998;28;20453;-66
2021/10/29 09:45:33;;;;;;;3.63;2.40;;;10.90;99.90;;;;;;5051908;28;20421;-68
2021/10/29 09:48:16;;;;;;;5.13;0.90;;;10.90;99.90;;;;;;5045625;28;20421;-67
2021/10/29 09:50:50;;;;;;;1.23;1.00;;;11.00;99.90;;;;;;5039349;28;20424;-67
2021/10/29 09:53:36;;;;;;;2.17;1.30;;;11.00;99.90;;;;;;5031421;28;20959;-65
2021/10/29 09:56:09;;;;;;;1.10;0.90;;;11.10;99.90;;;;;;5046971;28;20423;-67
2021/10/29 09:58:40;;;;;;;2.70;0.93;;;11.30;99.90;;;;;;5051367;28;20677;-66
2021/10/29 10:01:09;;;;;;;3.63;1.57;;;11.40;99.90;;;;;;5051670;28;20408;-66
2021/10/29 10:03:40;;;;;;;1.33;0.97;;;11.50;99.90;;;;;;5024426;23;1197144;-65
2021/10/29 10:06:09;;;;;;;4.20;2.40;;;11.40;99.90;;;;;;5071496;28;20421;-64
2021/10/29 10:08:39;;;;;;;4.10;1.87;;;11.50;99.90;;;;;;5072416;28;20476;-66
2021/10/29 10:11:11;;;;;;;2.37;2.17;;;11.60;99.90;;;;;;5072450;28;20445;-64
2021/10/29 10:13:41;;;;;;;1.43;1.07;;;11.70;99.90;;;;;;5073159;28;20446;-65
2021/10/29 10:16:11;;;;;;;4.23;2.93;;;11.70;99.90;;;;;;5072503;28;20414;-64
2021/10/29 10:18:40;;;;;;;3.00;1.67;;;11.70;99.90;;;;;;5073275;28;20480;-64
2021/10/29 10:21:11;;;;;;;2.33;1.87;;;11.90;99.90;;;;;;5072441;28;20729;-65
2021/10/29 10:23:46;;;;;;;3.93;3.23;;;12.00;99.90;;;;;;5072274;28;20529;-64
2021/10/29 10:26:26;;;;;;;2.57;2.00;;;12.20;99.90;;;;;;5072334;28;20523;-66
2021/10/29 10:41:00;;;;;;;2.53;1.50;;;12.60;99.90;;;;;;5054035;28;20414;-66
2021/10/29 10:46:21;;;;;;;1.37;1.17;;;12.70;99.90;;;;;;5071172;28;20431;-65
2021/10/29 10:48:59;;;;;;;4.40;4.00;;;12.80;99.90;;;;;;5070501;28;20424;-65
2021/10/29 10:51:50;;;;;;;5.07;3.50;;;12.90;99.90;;;;;;5071659;28;20418;-65
2021/10/29 10:54:34;;;;;;;2.13;1.90;;;13.00;99.90;;;;;;5071711;28;20475;-66
2021/10/29 10:57:23;;;;;;;3.47;2.13;;;13.10;99.90;;;;;;5062486;28;20503;-66
2021/10/29 11:00:09;;;;;;;4.53;4.13;;;13.30;99.90;;;;;;5051466;28;20407;-65
2021/10/29 11:03:04;;;;;;;4.03;3.70;;;13.40;99.90;;;;;;5051458;28;20513;-64
2021/10/29 11:11:19;;;;;;;1.30;1.17;;;13.60;99.90;;;;;;5051633;28;20781;-64
2021/10/29 11:13:58;;;;;;;2.47;2.03;;;13.70;99.90;;;;;;5051501;28;20960;-66
2021/10/29 11:16:31;;;;;;;2.40;1.10;;;13.70;99.90;;;;;;5051360;28;20427;-65
2021/10/29 11:19:07;;;;;;;2.03;1.93;;;13.70;99.90;;;;;;5033775;28;20438;-65
2021/10/29 11:21:45;;;;;;;2.00;1.90;;;13.80;99.90;;;;;;5051508;28;20414;-66
2021/10/29 11:24:15;;;;;;;3.73;3.40;;;13.90;99.90;;;;;;5051567;28;20412;-66
2021/10/29 11:26:46;;;;;;;1.63;1.47;;;13.90;99.90;;;;;;5051355;28;20390;-65
2021/10/29 11:29:15;;;;;;;3.10;2.90;;;13.90;99.90;;;;;;5051708;28;20419;-64
2021/10/29 11:31:48;;;;;;;3.60;2.23;;;14.00;99.90;;;;;;5051699;28;20419;-65
2021/10/29 11:34:18;;;;;;;3.57;2.10;;;14.10;99.90;;;;;;5051596;28;20390;-65
2021/10/29 11:36:51;;;;;;;4.07;3.13;;;14.10;99.90;;;;;;5051529;28;20383;-63
2021/10/29 11:39:22;;;;;;;3.30;2.60;;;14.10;99.90;;;;;;5052061;28;20840;-65
2021/10/29 11:41:52;;;;;;;2.60;2.40;;;14.20;99.90;;;;;;5051553;28;20484;-65
2021/10/29 11:44:22;;;;;;;1.80;1.30;;;14.10;99.90;;;;;;5051453;28;20414;-64
2021/10/29 11:46:55;;;;;;;1.30;1.20;;;14.00;99.90;;;;;;5051718;28;20427;-63
2021/10/29 11:49:27;;;;;;;12.10;1.97;;;14.00;99.90;;;;;;5051496;28;20406;-66
2021/10/29 11:51:57;;;;;;;4.20;3.80;;;14.10;99.90;;;;;;5051400;28;20509;-65
2021/10/29 11:54:29;;;;;;;1.30;1.17;;;14.10;99.90;;;;;;5051441;28;20421;-65
2021/10/29 11:57:11;;;;;;;2.70;2.00;;;14.30;99.90;;;;;;5051298;28;20411;-65
2021/10/29 12:05:55;;;;;;;3.60;3.03;;;14.50;99.90;;;;;;5037784;28;21066;-68
2021/10/29 12:08:24;;;;;;;3.87;3.40;;;14.50;99.90;;;;;;5055590;28;20394;-65
2021/10/29 12:10:59;;;;;;;4.23;3.10;;;14.60;99.90;;;;;;5055166;28;20409;-66
2021/10/29 12:13:28;;;;;;;3.10;2.50;;;14.60;99.90;;;;;;5055089;28;20559;-64
2021/10/29 12:15:56;;;;;;;3.40;3.10;;;14.60;99.90;;;;;;5054827;28;20393;-65
2021/10/29 12:18:32;;;;;;;3.73;3.50;;;14.60;99.90;;;;;;5054771;28;20489;-66
2021/10/29 12:21:00;;;;;;;3.90;2.47;;;14.60;99.90;;;;;;5053948;28;20410;-66
2021/10/29 12:23:30;;;;;;;2.97;2.57;;;14.70;99.90;;;;;;5054341;28;20439;-66
2021/10/29 12:26:03;;;;;;;2.07;1.97;;;14.70;99.90;;;;;;5054802;28;20431;-65
2021/10/29 12:28:35;;;;;;;3.17;2.93;;;14.70;99.90;;;;;;5036978;28;20409;-63
2021/10/29 12:31:12;;;;;;;2.63;1.87;;;14.80;99.90;;;;;;5054690;28;20441;-64
2021/10/29 12:34:02;;;;;;;2.90;2.63;;;14.90;99.90;;;;;;5054700;28;20450;-64
2021/10/29 12:37:01;;;;;;;4.33;2.17;;;14.90;99.90;;;;;;5055046;28;20754;-65
2021/10/29 12:53:48;;;;;;;3.93;3.20;;;14.80;99.90;;;;;;5073831;28;20438;-64
2021/10/29 13:01:24;;;;;;;3.40;2.33;;;14.90;99.90;;;;;;5062913;28;20461;-65
2021/10/29 13:02:06;;;;;;;11.03;2.90;;;15.00;99.90;;;;;;5036028;28;21011;-64
2021/10/29 13:04:40;;;;;;;3.03;1.43;;;14.90;99.90;;;;;;5035597;28;20453;-64
2021/10/29 13:07:10;;;;;;;3.50;2.83;;;14.90;99.90;;;;;;5053527;28;20393;-65
2021/10/29 13:09:40;;;;;;;3.73;3.43;;;14.90;99.90;;;;;;5054948;28;20489;-63
2021/10/29 13:12:13;;;;;;;5.20;2.27;;;14.90;99.90;;;;;;5052450;28;20759;-63
2021/10/29 13:14:44;;;;;;;3.43;2.40;;;14.90;99.90;;;;;;5052990;28;20469;-63
2021/10/29 13:17:15;;;;;;;6.87;2.47;;;14.90;99.90;;;;;;5053417;28;20378;-65
2021/10/29 13:20:10;;;;;;;3.60;3.30;;;14.80;99.90;;;;;;5052912;28;20483;-63
2021/10/29 13:28:29;;;;;;;2.70;2.00;;;14.80;99.90;;;;;;5052776;28;20374;-64
2021/10/29 13:36:42;;;;;;;4.80;3.53;;;14.60;99.90;;;;;;5052655;28;20386;-63
2021/10/29 13:53:21;;;;;;;1.50;1.30;;;14.40;99.90;;;;;;5062037;28;20433;-65
2021/10/29 13:55:58;;;;;;;3.27;2.97;;;14.50;99.90;;;;;;5069885;28;20441;-64
2021/10/29 13:58:53;;;;;;;3.83;2.20;;;14.40;99.90;;;;;;5070389;28;20450;-65
2021/10/29 14:29:35;;;;;;;3.60;1.83;;;14.00;99.90;;;;;;5072181;28;20389;-62
2021/10/29 14:32:11;;;;;;;1.50;1.00;;;14.00;99.90;;;;;;5071502;28;20435;-64
2021/10/29 14:34:42;;;;;;;2.50;2.30;;;14.00;99.90;;;;;;5071682;28;20414;-63
2021/10/29 14:37:16;;;;;;;2.47;1.77;;;13.90;99.90;;;;;;5071808;28;20387;-64
2021/10/29 14:39:51;;;;;;;1.90;1.80;;;13.80;99.90;;;;;;5072090;28;20440;-67
2021/10/29 14:42:26;;;;;;;2.23;1.90;;;13.80;99.90;;;;;;5072180;28;20437;-65
2021/10/29 14:45:01;;;;;;;4.40;2.17;;;13.70;99.90;;;;;;5053956;28;20528;-65
2021/10/29 14:47:38;;;;;;;5.50;2.37;;;13.70;99.90;;;;;;5072188;28;20396;-65
2021/10/29 14:50:29;;;;;;;4.03;3.73;;;13.70;99.90;;;;;;5072856;28;20456;-65
2021/10/29 15:04:06;;;;;;;4.33;2.70;;;13.20;99.90;;;;;;5051812;28;21007;-65
2021/10/29 15:15:30;;;;;;;1.33;1.23;;;12.80;99.90;;;;;;5072122;28;20401;-65
2021/10/29 15:18:07;;;;;;;3.13;2.40;;;12.70;99.90;;;;;;5072016;28;20411;-64
2021/10/29 15:26:29;;;;;;;2.40;2.20;;;12.40;99.90;;;;;;5054193;28;20824;-66
2021/10/29 15:29:04;;;;;;;1.33;1.13;;;12.30;99.90;;;;;;5071798;28;20450;-65
2021/10/29 15:43:01;;;;;;;4.70;2.70;;;11.90;99.90;;;;;;5076784;28;20423;-65
2021/10/29 15:45:37;;;;;;;3.30;2.00;;;11.90;99.90;;;;;;5077603;28;20439;-65
2021/10/29 15:48:09;;;;;;;9.97;3.80;;;11.70;99.90;;;;;;5077935;28;20422;-65
2021/10/29 15:50:38;;;;;;;3.63;1.63;;;11.70;99.90;;;;;;5075749;28;20430;-65
2021/10/29 15:53:08;;;;;;;5.67;3.87;;;11.60;99.90;;;;;;5075328;28;20442;-65
2021/10/29 15:55:40;;;;;;;2.90;1.80;;;11.50;99.90;;;;;;5055011;28;20461;-64
2021/10/29 15:58:25;;;;;;;1.70;1.60;;;11.50;99.90;;;;;;5055301;28;20441;-65
2021/10/29 16:01:01;;;;;;;2.00;1.50;;;11.40;99.90;;;;;;5055495;28;20459;-65
2021/10/29 16:03:38;;;;;;;4.30;3.20;;;11.40;99.90;;;;;;5055016;28;20441;-66
2021/10/29 16:17:12;;;;;;;3.97;3.60;;;11.20;99.90;;;;;;5055101;28;20396;-64
2021/10/29 16:19:43;;;;;;;3.57;3.37;;;11.10;99.90;;;;;;5055275;28;20941;-65
2021/10/29 16:22:20;;;;;;;3.30;2.20;;;11.00;99.90;;;;;;5055076;28;20520;-66
2021/10/29 16:24:55;;;;;;;4.23;3.53;;;11.00;99.90;;;;;;5054597;28;20497;-66
2021/10/29 16:27:24;;;;;;;4.57;2.90;;;10.90;99.90;;;;;;5054833;28;20438;-63
2021/10/29 16:29:52;;;;;;;4.13;2.30;;;10.90;99.90;;;;;;5054799;28;20431;-65
2021/10/29 16:32:26;;;;;;;4.13;3.37;;;10.70;99.90;;;;;;5053694;28;20453;-65
2021/10/29 16:34:54;;;;;;;4.90;3.40;;;10.70;99.90;;;;;;5054199;28;20393;-65
2021/10/29 16:37:24;;;;;;;4.03;2.40;;;10.70;99.90;;;;;;5054002;28;20394;-63
2021/10/29 16:39:52;;;;;;;6.30;3.10;;;10.70;99.90;;;;;;5036478;28;20451;-66
2021/10/29 16:42:21;;;;;;;2.87;1.87;;;10.60;99.90;;;;;;5054089;28;20553;-64
2021/10/29 16:44:51;;;;;;;4.10;3.73;;;10.60;99.90;;;;;;5053683;28;20438;-66
2021/10/29 16:47:21;;;;;;;3.70;3.07;;;10.60;99.90;;;;;;5035216;28;20427;-67